Time;durP1;ratioP1;P1;durP2;ratioP2;P2;SDS_P1;SDS_P2;PMS_P1;PMS_P2;Temp;Humidity;BMP_temperature;BMP_pressure;BME280_temperature;BME280_humidity;BME280_pressure;Samples;Min_cycle;Max_cycle;Signal;HPM_P1;HPM_P2
2021/11/03 00:00:09;;;;;;;2.50;2.37;;;7.00;91.30;;;5.42;93.73;96698.66;5043000;28;20492;-74
2021/11/03 00:02:36;;;;;;;2.77;2.47;;;6.80;91.60;;;5.37;94.71;96693.13;5050742;28;20549;-74
2021/11/03 00:05:04;;;;;;;3.00;2.80;;;6.80;92.20;;;5.13;95.19;96665.22;5049886;28;20454;-74
2021/11/03 00:07:32;;;;;;;3.33;3.07;;;6.70;92.30;;;5.34;94.82;96694.34;5064848;28;20545;-74
2021/11/03 00:09:59;;;;;;;3.50;3.20;;;6.70;92.10;;;5.25;94.71;96692.97;5050344;28;20489;-73
2021/11/03 00:12:28;;;;;;;3.03;2.73;;;6.60;92.20;;;5.23;95.20;96678.97;5050694;28;20543;-73
2021/11/03 00:14:55;;;;;;;4.07;3.67;;;6.60;92.60;;;5.12;95.51;96693.03;5052473;28;20493;-74
2021/11/03 00:17:22;;;;;;;3.90;3.53;;;6.50;93.10;;;4.99;95.46;96683.19;5062599;28;21059;-74
2021/11/03 00:19:49;;;;;;;3.83;3.50;;;6.40;93.10;;;4.99;96.04;96688.56;5047123;28;20450;-75
2021/11/03 00:22:16;;;;;;;3.80;3.50;;;6.40;94.00;;;4.86;97.35;96678.72;5047213;28;20540;-74
2021/11/03 00:24:44;;;;;;;3.70;3.40;;;6.30;94.50;;;4.65;97.77;96668.09;5050169;28;20512;-73
2021/11/03 00:27:11;;;;;;;4.60;4.10;;;6.20;95.30;;;4.57;97.94;96654.97;5064238;28;20450;-74
2021/11/03 00:29:40;;;;;;;3.10;2.80;;;6.10;95.20;;;4.53;97.06;96670.59;5044346;28;20455;-74
2021/11/03 00:32:10;;;;;;;3.13;2.90;;;6.00;94.80;;;3.86;98.03;96579.81;5049129;28;20482;-74
2021/11/03 00:34:38;;;;;;;3.20;2.90;;;5.90;95.40;;;4.33;97.63;96659.13;5049347;28;20472;-74
2021/11/03 00:37:05;;;;;;;3.73;3.43;;;5.80;95.70;;;4.33;98.17;96670.63;5051074;28;20554;-75
2021/11/03 00:39:32;;;;;;;4.03;3.50;;;5.80;95.70;;;4.32;97.77;96681.53;5049735;28;20478;-75
2021/11/03 00:42:00;;;;;;;3.77;3.47;;;5.70;96.10;;;4.22;98.51;96693.50;5048130;28;20504;-74
2021/11/03 00:44:27;;;;;;;3.60;3.30;;;5.60;96.40;;;4.18;98.18;96694.94;5047425;28;20465;-73
2021/11/03 00:46:55;;;;;;;3.50;3.20;;;5.60;96.70;;;4.09;98.78;96706.88;5047615;28;20465;-75
2021/11/03 00:49:22;;;;;;;4.20;3.53;;;5.50;97.20;;;3.99;98.59;96701.09;5060977;28;20478;-73
2021/11/03 00:51:49;;;;;;;4.40;4.00;;;5.40;97.20;;;4.03;98.68;96723.72;5049534;28;20490;-73
2021/11/03 00:54:16;;;;;;;4.07;3.77;;;5.40;97.90;;;3.93;98.87;96700.91;5048127;28;20529;-73
2021/11/03 00:56:43;;;;;;;3.77;3.47;;;5.40;97.70;;;3.90;99.20;96687.97;5048352;28;20489;-74
2021/11/03 00:59:10;;;;;;;5.67;4.23;;;5.30;98.90;;;3.86;100.00;96715.28;5046446;28;20535;-73
2021/11/03 01:01:38;;;;;;;4.30;3.90;;;5.30;98.80;;;3.87;99.55;96724.94;5050322;28;20481;-75
2021/11/03 01:04:06;;;;;;;6.23;4.67;;;5.20;99.90;;;3.84;100.00;96723.50;5062456;28;20478;-75
2021/11/03 01:06:34;;;;;;;4.23;3.93;;;5.20;99.00;;;3.81;100.00;96730.09;5069593;28;20489;-75
2021/11/03 01:09:01;;;;;;;5.27;4.23;;;5.20;99.30;;;3.94;99.40;96726.59;5052568;28;20457;-74
2021/11/03 01:11:28;;;;;;;5.10;3.80;;;5.30;99.10;;;3.85;99.00;96727.81;5052538;28;20623;-74
2021/11/03 01:13:55;;;;;;;3.67;3.37;;;5.30;98.60;;;3.85;98.95;96737.69;5051149;28;20515;-74
2021/11/03 01:16:22;;;;;;;4.57;4.10;;;5.20;98.20;;;3.81;99.29;96734.59;5051649;28;20488;-73
2021/11/03 01:18:53;;;;;;;5.07;4.67;;;5.20;98.10;;;3.74;99.75;96725.75;5050669;28;20477;-74
2021/11/03 01:21:22;;;;;;;5.07;4.20;;;5.20;98.60;;;3.71;99.28;96736.84;5066310;28;20450;-73
2021/11/03 01:23:50;;;;;;;4.33;3.80;;;5.20;98.50;;;3.70;99.63;96738.69;5053167;28;20501;-74
2021/11/03 01:26:17;;;;;;;4.47;3.90;;;5.10;98.80;;;3.67;99.93;96736.44;5062784;28;20446;-74
2021/11/03 01:28:45;;;;;;;4.63;4.20;;;5.10;98.60;;;3.54;99.68;96721.19;5062485;28;20523;-74
2021/11/03 01:31:12;;;;;;;4.90;4.37;;;5.10;99.20;;;3.67;99.64;96720.41;5043059;28;20486;-74
2021/11/03 01:33:40;;;;;;;6.33;4.53;;;5.10;99.10;;;3.65;100.00;96712.59;5053040;28;20485;-74
2021/11/03 01:36:07;;;;;;;4.27;3.97;;;5.10;99.90;;;3.67;99.85;96715.06;5052252;28;20458;-73
2021/11/03 01:38:36;;;;;;;5.53;5.03;;;5.10;99.50;;;3.64;99.74;96713.63;5050771;28;20493;-73
2021/11/03 01:41:03;;;;;;;5.60;5.10;;;5.10;98.70;;;3.61;100.00;96714.03;5050040;28;20547;-73
2021/11/03 01:43:40;;;;;;;6.10;4.77;;;5.10;99.10;;;3.55;99.79;96693.44;5048180;28;20457;-73
2021/11/03 01:46:23;;;;;;;6.70;6.10;;;5.10;99.20;;;3.62;100.00;96699.66;5061072;28;20887;-74
2021/11/03 01:48:52;;;;;;;6.23;5.63;;;5.10;98.60;;;3.60;99.54;96696.34;5052323;28;20450;-74
2021/11/03 01:51:28;;;;;;;6.10;5.47;;;5.10;98.60;;;3.58;100.00;96694.91;5051189;28;20465;-73
2021/11/03 01:53:58;;;;;;;6.13;5.63;;;5.00;99.40;;;3.56;99.99;96687.09;5050470;28;20466;-74
2021/11/03 01:56:25;;;;;;;8.67;6.33;;;5.00;99.30;;;3.51;100.00;96698.41;5049562;28;20545;-73
2021/11/03 01:58:59;;;;;;;8.10;6.77;;;5.00;99.90;;;3.45;100.00;96679.69;5048493;28;20528;-73
2021/11/03 02:01:26;;;;;;;8.40;7.50;;;4.90;99.90;;;3.41;100.00;96676.59;5052842;28;20541;-73
2021/11/03 02:03:53;;;;;;;12.70;7.83;;;4.90;99.90;;;3.36;100.00;96666.53;5052660;28;20489;-73
2021/11/03 02:06:24;;;;;;;8.33;7.53;;;4.90;99.90;;;3.39;100.00;96671.44;5048471;28;20541;-73
2021/11/03 02:08:51;;;;;;;8.60;7.67;;;4.90;99.90;;;3.41;100.00;96679.25;5065001;28;20500;-73
2021/11/03 02:11:21;;;;;;;11.60;8.07;;;4.90;99.90;;;3.42;100.00;96661.41;5052195;28;20534;-73
2021/11/03 02:13:49;;;;;;;9.73;8.67;;;4.90;99.90;;;3.29;100.00;96655.03;5047658;28;20483;-74
2021/11/03 02:16:19;;;;;;;9.90;8.43;;;4.90;99.90;;;3.31;100.00;96678.81;5048610;28;21008;-75
2021/11/03 02:18:46;;;;;;;11.07;9.20;;;4.80;99.90;;;3.35;100.00;96670.22;5041240;28;21044;-74
2021/11/03 02:21:19;;;;;;;12.07;9.40;;;4.80;99.90;;;3.45;100.00;96663.66;5049038;28;20460;-74
2021/11/03 02:23:55;;;;;;;10.90;9.70;;;4.80;99.90;;;3.38;100.00;96651.13;5050913;28;20511;-74
2021/11/03 02:26:30;;;;;;;11.40;10.07;;;4.90;99.90;;;3.37;100.00;96648.66;5050813;28;20458;-74
2021/11/03 02:28:59;;;;;;;11.17;10.00;;;4.90;99.90;;;3.36;100.00;96649.69;5052000;28;20552;-74
2021/11/03 02:31:33;;;;;;;12.70;10.63;;;4.80;99.90;;;3.35;100.00;96648.84;5050034;28;20538;-74
2021/11/03 02:34:01;;;;;;;13.37;11.97;;;4.80;99.90;;;3.29;100.00;96630.16;5051751;28;20633;-74
2021/11/03 02:36:28;;;;;;;16.47;13.30;;;4.80;99.90;;;3.33;100.00;96628.72;5052577;28;20541;-74
2021/11/03 02:38:56;;;;;;;14.47;12.93;;;4.80;99.90;;;3.29;100.00;96628.31;5051752;28;20541;-75
2021/11/03 02:41:29;;;;;;;19.83;14.93;;;4.80;99.90;;;3.15;100.00;96621.31;5053344;28;20860;-75
2021/11/03 02:44:00;;;;;;;14.97;13.20;;;4.70;99.90;;;2.99;100.00;96591.31;5050725;28;20460;-75
2021/11/03 02:46:27;;;;;;;17.43;13.30;;;4.60;99.90;;;3.03;100.00;96603.22;5049725;28;20961;-74
2021/11/03 02:48:55;;;;;;;20.00;14.53;;;4.60;99.90;;;3.08;100.00;96622.09;5044304;28;20545;-75
2021/11/03 02:51:32;;;;;;;19.30;14.30;;;4.50;99.90;;;2.97;100.00;96625.38;5051852;28;20533;-75
2021/11/03 02:54:04;;;;;;;20.20;15.60;;;4.50;99.90;;;2.91;100.00;96626.16;5049839;28;20501;-74
2021/11/03 02:56:36;;;;;;;20.83;15.27;;;4.40;99.90;;;2.92;100.00;96623.31;5049557;28;21094;-74
2021/11/03 02:59:04;;;;;;;17.10;14.50;;;4.40;99.90;;;2.90;100.00;96627.19;5048201;28;20984;-75
2021/11/03 03:01:34;;;;;;;19.13;15.13;;;4.40;99.90;;;2.88;100.00;96629.25;5048516;28;20505;-76
2021/11/03 03:04:03;;;;;;;23.90;16.40;;;4.40;99.90;;;2.96;100.00;96639.75;5050510;28;20453;-73
2021/11/03 03:06:32;;;;;;;24.60;15.60;;;4.40;99.90;;;2.92;100.00;96633.16;5047128;28;20465;-73
2021/11/03 03:09:00;;;;;;;23.13;15.87;;;4.40;99.90;;;3.09;100.00;96631.75;5051091;28;20469;-73
2021/11/03 03:11:34;;;;;;;25.60;16.13;;;4.50;99.90;;;2.96;100.00;96629.88;5049897;28;20496;-74
2021/11/03 03:14:01;;;;;;;19.50;15.43;;;4.40;99.90;;;2.98;100.00;96627.03;5050203;28;20474;-74
2021/11/03 03:16:29;;;;;;;25.30;17.77;;;4.40;99.90;;;2.97;100.00;96630.72;5047271;28;20880;-74
2021/11/03 03:18:56;;;;;;;27.10;17.83;;;4.40;99.90;;;2.90;100.00;96624.53;5040401;28;20481;-75
2021/11/03 03:21:24;;;;;;;27.10;20.17;;;4.40;99.90;;;2.83;100.00;96620.00;5049034;28;20538;-73
2021/11/03 03:23:52;;;;;;;26.30;18.73;;;4.30;99.90;;;2.76;100.00;96613.81;5044995;28;20486;-76
2021/11/03 03:26:22;;;;;;;23.60;19.70;;;4.30;99.90;;;2.73;100.00;96600.88;5043827;28;20802;-75
2021/11/03 03:32:57;;;;;;;29.57;20.20;;;4.20;99.90;;;2.75;100.00;96596.16;5043190;28;20465;-75
2021/11/03 03:35:26;;;;;;;27.37;19.97;;;4.20;99.90;;;2.81;100.00;96603.38;5051418;28;20494;-76
2021/11/03 03:37:53;;;;;;;26.30;20.33;;;4.20;99.90;;;2.81;100.00;96610.53;5049318;28;20489;-74
2021/11/03 03:40:20;;;;;;;28.30;19.97;;;4.30;99.90;;;2.76;100.00;96603.13;5043924;28;20558;-74
2021/11/03 03:42:47;;;;;;;25.77;20.17;;;4.20;99.90;;;2.79;100.00;96600.06;5049150;28;20532;-74
2021/11/03 03:45:14;;;;;;;23.77;18.90;;;4.30;99.90;;;2.89;100.00;96610.38;5050341;28;20852;-74
2021/11/03 03:47:41;;;;;;;26.47;20.90;;;4.30;99.90;;;2.93;100.00;96614.28;5046978;28;20458;-73
2021/11/03 03:50:11;;;;;;;27.77;19.63;;;4.30;99.90;;;2.83;100.00;96604.00;5047320;28;20493;-73
2021/11/03 03:52:38;;;;;;;21.20;18.17;;;4.30;99.90;;;2.82;100.00;96599.69;5043931;28;20555;-73
2021/11/03 03:55:08;;;;;;;26.60;20.10;;;4.40;99.90;;;3.01;100.00;96605.28;5046616;28;20549;-74
2021/11/03 03:57:35;;;;;;;25.37;20.17;;;4.50;99.90;;;2.96;100.00;96608.53;5055044;28;20470;-73
2021/11/03 04:00:09;;;;;;;23.33;19.07;;;4.40;99.90;;;2.58;100.00;96530.88;5049376;28;20941;-74
2021/11/03 04:02:36;;;;;;;25.17;18.90;;;4.50;99.90;;;3.03;100.00;96605.03;5043667;28;20486;-74
2021/11/03 04:05:04;;;;;;;26.60;19.90;;;4.50;99.90;;;3.18;100.00;96602.22;5043457;28;20549;-74
2021/11/03 04:07:33;;;;;;;24.50;18.77;;;4.60;99.90;;;2.79;100.00;96549.38;5047326;28;20537;-73
2021/11/03 04:10:00;;;;;;;24.77;19.57;;;4.60;99.90;;;3.21;100.00;96609.81;5049759;28;20493;-75
2021/11/03 04:12:27;;;;;;;24.83;19.57;;;4.60;99.90;;;3.20;100.00;96600.16;5047498;28;20539;-74
2021/11/03 04:14:54;;;;;;;22.90;18.63;;;4.60;99.90;;;3.18;100.00;96610.22;5042882;28;20938;-74
2021/11/03 04:17:21;;;;;;;24.40;18.40;;;4.70;99.90;;;3.26;100.00;96586.81;5047738;28;20519;-76
2021/11/03 04:19:48;;;;;;;22.17;18.47;;;4.70;99.90;;;3.16;100.00;96558.91;5050048;28;20499;-74
2021/11/03 04:22:15;;;;;;;21.70;17.10;;;4.80;99.90;;;3.36;100.00;96599.78;5044335;28;20513;-75
2021/11/03 04:24:44;;;;;;;21.43;17.60;;;4.80;99.90;;;3.24;100.00;96577.38;5050180;28;20943;-75
2021/11/03 04:27:12;;;;;;;18.93;16.30;;;4.80;99.90;;;3.37;100.00;96604.06;5051418;28;20987;-75
2021/11/03 04:29:39;;;;;;;17.60;15.57;;;4.80;99.90;;;3.26;100.00;96602.00;5049112;28;20485;-75
2021/11/03 04:32:07;;;;;;;20.30;16.30;;;4.80;99.90;;;3.37;100.00;96597.94;5048234;28;20993;-75
2021/11/03 04:34:34;;;;;;;22.30;16.60;;;4.80;99.90;;;3.38;100.00;96594.22;5046221;28;20553;-75
2021/11/03 04:37:01;;;;;;;20.63;16.00;;;4.80;99.90;;;3.54;100.00;96593.00;5045909;28;20633;-74
2021/11/03 04:39:28;;;;;;;18.07;15.97;;;4.90;99.90;;;3.38;100.00;96589.69;5045236;28;20986;-74
2021/11/03 04:41:57;;;;;;;20.80;16.33;;;4.90;98.30;;;3.57;99.95;96597.94;5063459;28;20833;-74
2021/11/03 04:44:24;;;;;;;17.90;14.80;;;4.90;98.70;;;3.53;100.00;96597.53;5049537;28;20557;-75
2021/11/03 04:46:51;;;;;;;20.57;15.87;;;4.90;99.10;;;3.52;99.35;96579.03;5051705;28;20964;-74
2021/11/03 04:49:19;;;;;;;17.60;14.83;;;5.00;98.20;;;3.64;99.69;96592.56;5051781;28;20451;-75
2021/11/03 04:51:46;;;;;;;22.63;17.20;;;5.00;98.10;;;3.61;100.00;96593.00;5047735;28;21527;-74
2021/11/03 04:54:13;;;;;;;19.90;15.63;;;5.00;98.80;;;3.52;99.38;96593.22;5052198;28;20473;-75
2021/11/03 04:56:40;;;;;;;18.67;16.43;;;5.00;97.50;;;3.63;99.72;96596.28;5045106;28;21036;-75
2021/11/03 04:59:09;;;;;;;21.63;17.23;;;5.00;98.60;;;3.63;99.54;96597.13;5047955;28;20533;-74
2021/11/03 05:01:37;;;;;;;18.50;15.30;;;5.10;98.20;;;3.60;99.86;96589.53;5038568;28;20556;-75
2021/11/03 05:04:05;;;;;;;16.70;14.53;;;5.10;97.10;;;3.60;99.58;96588.69;5045762;28;20470;-75
2021/11/03 05:06:38;;;;;;;21.47;15.73;;;5.10;97.10;;;3.46;99.82;96583.34;5044344;28;20554;-74
2021/11/03 05:09:08;;;;;;;20.10;16.23;;;5.00;96.90;;;3.58;99.88;96588.91;5048882;28;20968;-74
2021/11/03 05:11:35;;;;;;;19.33;15.73;;;5.00;97.40;;;3.55;100.00;96589.28;5049129;28;20533;-75
2021/11/03 05:14:03;;;;;;;20.07;15.67;;;5.00;97.10;;;3.59;100.00;96581.69;5062617;28;20497;-73
2021/11/03 05:16:31;;;;;;;20.57;16.03;;;5.10;97.70;;;3.55;100.00;96586.63;5050229;28;20896;-75
2021/11/03 05:18:59;;;;;;;22.27;16.50;;;5.10;98.00;;;3.51;100.00;96567.53;5062627;28;20535;-75
2021/11/03 05:21:26;;;;;;;21.97;16.80;;;5.00;99.70;;;3.67;100.00;96581.50;5043523;28;20507;-74
2021/11/03 05:23:54;;;;;;;21.50;17.03;;;5.10;97.50;;;3.52;100.00;96579.03;5047686;28;20470;-74
2021/11/03 05:26:26;;;;;;;25.57;18.30;;;5.10;97.70;;;3.56;100.00;96585.59;5047786;28;20484;-75
2021/11/03 05:28:58;;;;;;;23.10;16.97;;;5.00;98.80;;;3.80;99.79;96580.66;5046077;28;20557;-74
2021/11/03 05:31:26;;;;;;;21.23;16.90;;;5.10;98.60;;;3.69;99.80;96585.59;5045708;28;20465;-75
2021/11/03 05:33:55;;;;;;;21.77;17.77;;;5.10;97.50;;;3.64;100.00;96590.75;5046469;28;20988;-76
2021/11/03 05:36:26;;;;;;;24.87;18.00;;;5.10;98.40;;;3.71;100.00;96592.56;5047690;28;20442;-74
2021/11/03 05:38:54;;;;;;;26.23;19.27;;;5.10;99.30;;;3.86;99.71;96590.50;5044025;28;20465;-74
2021/11/03 05:41:22;;;;;;;22.27;17.03;;;5.20;98.20;;;3.80;99.44;96591.34;5047353;28;20536;-75
2021/11/03 05:43:49;;;;;;;22.10;16.43;;;5.20;96.80;;;3.76;99.76;96590.13;5046762;28;20540;-73
2021/11/03 05:46:20;;;;;;;21.67;16.07;;;5.20;97.30;;;3.73;100.00;96595.88;5047111;28;20495;-74
2021/11/03 05:48:50;;;;;;;22.43;16.80;;;5.20;97.90;;;3.72;100.00;96595.06;5050567;28;20583;-75
2021/11/03 05:51:19;;;;;;;21.90;17.00;;;5.10;98.90;;;3.79;99.89;96582.53;5051054;28;20960;-73
2021/11/03 05:53:46;;;;;;;22.10;17.67;;;5.20;97.50;;;3.64;99.35;96566.69;5052376;28;20473;-74
2021/11/03 05:56:13;;;;;;;20.47;15.87;;;5.20;96.80;;;3.68;99.73;96575.94;5046957;28;20986;-75
2021/11/03 05:58:41;;;;;;;24.03;18.40;;;5.20;96.30;;;3.73;99.25;96550.47;5042491;28;20946;-73
2021/11/03 06:01:08;;;;;;;22.60;16.03;;;5.20;97.40;;;3.88;99.83;96569.75;5050708;28;20544;-75
2021/11/03 06:03:35;;;;;;;20.33;16.03;;;5.30;97.20;;;3.57;99.53;96544.53;5057496;28;20552;-74
2021/11/03 06:06:03;;;;;;;20.20;16.57;;;5.20;96.90;;;3.99;100.00;96578.16;5052551;28;20497;-75
2021/11/03 06:08:31;;;;;;;20.20;15.00;;;5.30;99.30;;;3.68;99.07;96565.25;5050378;28;20504;-75
2021/11/03 06:11:02;;;;;;;24.23;16.60;;;5.20;95.60;;;3.76;99.21;96563.41;5049682;28;20525;-73
2021/11/03 06:13:31;;;;;;;19.90;15.90;;;5.20;96.20;;;3.82;99.20;96574.09;5047877;28;20570;-74
2021/11/03 06:15:59;;;;;;;22.27;15.43;;;5.20;96.90;;;3.86;99.40;96561.09;5034683;28;20453;-75
2021/11/03 06:18:26;;;;;;;18.90;13.73;;;5.30;96.20;;;3.83;98.81;96567.72;5049884;28;20826;-75
2021/11/03 06:20:53;;;;;;;19.47;15.23;;;5.30;96.00;;;3.94;99.44;96566.25;5066812;28;20531;-74
2021/11/03 06:23:20;;;;;;;19.97;14.63;;;5.30;96.60;;;3.88;99.60;96545.72;5046678;28;20541;-76
2021/11/03 06:25:48;;;;;;;18.37;13.67;;;5.30;96.30;;;3.95;99.23;96554.53;5051577;28;20551;-75
2021/11/03 06:28:16;;;;;;;17.30;13.60;;;5.30;95.80;;;3.97;98.51;96555.13;5051760;28;20447;-73
2021/11/03 06:30:43;;;;;;;21.07;14.70;;;5.40;95.10;;;4.36;98.80;96557.91;5048504;28;20527;-74
2021/11/03 06:33:10;;;;;;;17.97;13.03;;;5.50;99.90;;;4.16;97.16;96560.63;5051438;28;20546;-73
2021/11/03 06:35:39;;;;;;;15.67;12.13;;;5.60;94.10;;;4.03;97.45;96547.34;5053215;28;20504;-74
2021/11/03 06:38:09;;;;;;;21.60;11.97;;;5.40;93.90;;;4.09;97.14;96543.81;5046677;28;20474;-74
2021/11/03 06:40:38;;;;;;;16.67;12.40;;;5.50;94.40;;;3.97;97.51;96552.47;5052106;28;20454;-75
2021/11/03 06:43:06;;;;;;;18.13;12.80;;;5.40;94.00;;;3.99;98.28;96554.09;5052191;28;20533;-74
2021/11/03 06:45:34;;;;;;;16.50;13.43;;;5.40;95.80;;;3.83;98.83;96554.34;5047898;28;20489;-75
2021/11/03 06:48:02;;;;;;;16.60;12.60;;;5.30;95.10;;;3.78;99.03;96551.47;5048957;28;20486;-76
2021/11/03 06:50:38;;;;;;;16.67;13.47;;;5.20;95.60;;;3.68;98.71;96535.88;5051322;28;21041;-75
2021/11/03 06:53:10;;;;;;;13.63;11.60;;;5.20;95.70;;;3.67;99.37;96550.25;5050269;28;20499;-76
2021/11/03 06:55:40;;;;;;;20.63;14.00;;;5.10;96.20;;;3.65;98.84;96541.63;5052532;28;20485;-76
2021/11/03 06:58:09;;;;;;;17.93;13.00;;;5.10;96.40;;;3.68;99.58;96545.75;5046236;28;20486;-74
2021/11/03 07:00:41;;;;;;;17.67;13.70;;;5.10;97.00;;;3.61;99.74;96535.06;5049386;28;20484;-78
2021/11/03 07:03:08;;;;;;;15.93;12.00;;;5.10;97.00;;;3.73;99.63;96539.78;5046930;28;20446;-73
2021/11/03 07:05:37;;;;;;;17.17;13.10;;;5.20;96.80;;;3.70;99.29;96527.66;5051775;28;20529;-75
2021/11/03 07:08:05;;;;;;;18.17;13.73;;;5.20;96.40;;;3.79;99.44;96536.25;5045131;28;20485;-75
2021/11/03 07:10:41;;;;;;;17.60;12.30;;;5.20;96.10;;;3.72;99.22;96530.94;5063400;28;20463;-75
2021/11/03 07:13:12;;;;;;;16.50;12.77;;;5.20;96.40;;;3.90;99.37;96527.63;5049677;28;20989;-75
2021/11/03 07:15:41;;;;;;;16.90;12.77;;;5.30;96.60;;;3.94;98.91;96531.50;5048523;28;20478;-74
2021/11/03 07:18:10;;;;;;;13.30;11.90;;;5.30;95.60;;;4.09;98.13;96533.94;5050983;28;20519;-75
2021/11/03 07:20:38;;;;;;;19.27;12.37;;;5.40;95.20;;;4.01;98.61;96534.16;5059061;28;20859;-72
2021/11/03 07:23:05;;;;;;;16.30;12.50;;;5.50;94.80;;;4.15;97.13;96532.25;5051918;28;20466;-76
2021/11/03 07:25:32;;;;;;;13.13;11.20;;;5.50;94.20;;;4.23;97.38;96520.50;5047866;28;20610;-74
2021/11/03 07:27:59;;;;;;;14.17;11.20;;;5.60;94.20;;;4.22;96.97;96525.06;5057033;28;20877;-75
2021/11/03 07:30:33;;;;;;;15.13;10.83;;;5.60;93.10;;;4.32;96.59;96529.09;5073611;28;20541;-75
2021/11/03 07:33:00;;;;;;;13.13;10.73;;;5.70;92.90;;;4.31;96.12;96530.16;5068331;28;20541;-74
2021/11/03 07:35:27;;;;;;;13.67;11.40;;;5.80;92.30;;;4.51;97.05;96528.22;5053846;28;20513;-74
2021/11/03 07:37:55;;;;;;;14.50;11.50;;;5.80;93.80;;;4.61;95.24;96518.91;5048973;28;20520;-74
2021/11/03 07:40:34;;;;;;;12.00;10.27;;;5.90;92.30;;;4.67;94.56;96520.72;5048230;28;20490;-74
2021/11/03 07:43:04;;;;;;;11.20;10.10;;;6.00;92.10;;;4.82;93.95;96526.63;5046776;28;20553;-74
2021/11/03 07:45:34;;;;;;;11.53;9.30;;;6.20;90.90;;;4.81;92.85;96527.66;5048140;28;20971;-74
2021/11/03 07:48:03;;;;;;;12.50;9.60;;;6.20;89.80;;;5.16;94.17;96528.25;5049600;28;20548;-75
2021/11/03 07:50:38;;;;;;;14.53;9.23;;;6.30;92.00;;;5.38;91.46;96508.09;5050481;28;20516;-75
2021/11/03 07:53:07;;;;;;;11.40;9.83;;;6.60;90.80;;;5.42;89.95;96511.13;5049391;28;20550;-75
2021/11/03 07:55:35;;;;;;;11.97;9.20;;;6.80;86.90;;;5.19;90.02;96509.88;5050267;28;20505;-75
2021/11/03 07:58:02;;;;;;;15.73;9.67;;;6.60;85.50;;;5.02;91.20;96496.22;5047625;28;20577;-75
2021/11/03 08:00:34;;;;;;;10.83;9.10;;;6.50;86.60;;;5.08;90.76;96503.38;5060706;28;20485;-74
2021/11/03 08:03:01;;;;;;;11.07;9.30;;;6.50;86.10;;;4.95;90.38;96496.25;5045178;28;20450;-74
2021/11/03 08:05:29;;;;;;;11.07;9.30;;;6.40;86.30;;;5.08;90.94;96506.06;5047431;28;20593;-75
2021/11/03 08:07:57;;;;;;;10.40;9.30;;;6.40;87.20;;;5.32;91.36;96500.91;5043535;28;20546;-74
2021/11/03 08:10:25;;;;;;;12.87;9.27;;;6.60;89.70;;;5.16;90.47;96496.13;5046970;28;20545;-74
2021/11/03 08:12:54;;;;;;;10.27;8.20;;;6.60;86.70;;;4.86;92.21;96483.34;5047728;28;20512;-74
2021/11/03 08:15:21;;;;;;;24.13;10.70;;;6.40;88.00;;;4.94;92.21;96477.75;5050793;28;20985;-74
2021/11/03 08:17:51;;;;;;;24.13;11.30;;;6.40;88.90;;;5.02;92.61;96490.84;5044454;28;20563;-74
2021/11/03 08:20:26;;;;;;;14.40;10.10;;;6.40;88.90;;;4.96;92.25;96483.72;5044413;28;20501;-74
2021/11/03 08:22:54;;;;;;;11.80;10.23;;;6.40;89.60;;;5.04;92.08;96493.31;5060404;28;20455;-74
2021/11/03 08:25:21;;;;;;;15.20;10.03;;;6.40;89.10;;;5.38;90.51;96494.69;5056848;28;20451;-75
2021/11/03 08:27:49;;;;;;;12.97;9.47;;;6.60;87.60;;;5.66;90.22;96480.00;5049592;28;20530;-74
2021/11/03 08:30:18;;;;;;;9.70;8.33;;;6.90;87.20;;;5.57;88.60;96486.69;5045951;28;20941;-76
2021/11/03 08:32:52;;;;;;;14.70;9.97;;;7.00;84.30;;;5.51;90.03;96480.34;5044897;28;20481;-72
2021/11/03 08:35:22;;;;;;;11.00;8.50;;;7.00;85.50;;;5.46;89.87;96464.13;5043486;28;20543;-73
2021/11/03 08:37:51;;;;;;;12.13;9.50;;;6.90;85.50;;;5.47;89.76;96465.78;5045158;28;20772;-74
2021/11/03 08:40:23;;;;;;;12.20;9.83;;;6.90;85.60;;;5.39;90.98;96464.19;5046312;28;20814;-73
2021/11/03 08:42:56;;;;;;;19.30;11.27;;;6.80;86.20;;;5.46;90.51;96457.94;5061066;28;20446;-74
2021/11/03 08:45:23;;;;;;;18.70;10.10;;;6.80;86.70;;;5.53;89.97;96464.03;5060545;28;20450;-74
2021/11/03 08:47:52;;;;;;;16.67;10.60;;;6.80;86.30;;;5.66;90.07;96455.88;5047357;28;20473;-74
2021/11/03 08:50:26;;;;;;;13.93;10.00;;;6.90;86.60;;;5.85;90.91;96461.25;5048387;28;20553;-74
2021/11/03 08:52:53;;;;;;;13.30;9.77;;;7.10;88.30;;;5.46;89.32;96415.09;5045772;28;20879;-74
2021/11/03 08:55:21;;;;;;;14.87;9.30;;;7.10;85.50;;;5.72;88.89;96456.06;5044436;28;20469;-73
2021/11/03 08:57:48;;;;;;;14.60;9.80;;;7.10;85.20;;;5.84;88.60;96450.75;5045426;28;20441;-73
2021/11/03 09:00:21;;;;;;;12.27;10.37;;;7.10;85.20;;;5.87;88.93;96442.25;5046896;28;20901;-73
2021/11/03 09:02:50;;;;;;;11.70;8.43;;;7.20;85.50;;;6.25;87.25;96438.53;5042636;28;20480;-74
2021/11/03 09:05:18;;;;;;;10.17;9.07;;;7.40;84.60;;;6.34;86.39;96453.25;5047019;28;20465;-69
2021/11/03 09:07:45;;;;;;;10.23;8.37;;;7.50;82.90;;;6.18;86.55;96460.09;5047839;28;20541;-69
2021/11/03 09:10:14;;;;;;;12.30;9.53;;;7.60;82.40;;;6.21;86.81;96465.00;5042874;28;20533;-69
2021/11/03 09:12:41;;;;;;;14.33;9.37;;;7.60;82.80;;;6.65;85.70;96480.09;5045230;28;20553;-69
2021/11/03 09:15:11;;;;;;;11.03;8.63;;;7.90;82.70;;;6.96;84.71;96475.53;5043890;28;20478;-74
2021/11/03 09:17:39;;;;;;;9.87;8.97;;;8.10;82.30;;;7.01;82.10;96451.47;5051573;28;21015;-78
2021/11/03 09:20:11;;;;;;;9.70;7.83;;;8.30;79.80;;;7.44;81.99;96454.09;5044920;28;20455;-74
2021/11/03 09:22:40;;;;;;;8.63;7.27;;;8.60;79.60;;;7.96;80.00;96457.88;5048034;28;20447;-76
2021/11/03 09:25:11;;;;;;;9.40;7.47;;;9.00;78.70;;;8.21;77.54;96450.34;5050487;28;20465;-76
2021/11/03 09:27:40;;;;;;;7.83;7.13;;;9.30;76.10;;;8.10;77.83;96453.88;5049730;28;20521;-76
2021/11/03 09:30:11;;;;;;;8.93;8.13;;;9.40;75.00;;;7.98;78.90;96453.13;5068975;28;20548;-76
2021/11/03 09:32:44;;;;;;;8.40;7.10;;;9.30;75.20;;;8.05;79.14;96456.47;5053384;28;20458;-79
2021/11/03 09:35:14;;;;;;;7.43;6.40;;;9.40;75.00;;;8.14;77.04;96457.75;5049493;28;20484;-76
2021/11/03 09:37:41;;;;;;;8.20;6.80;;;9.40;73.40;;;8.13;78.52;96456.13;5054079;28;20920;-75
2021/11/03 09:40:18;;;;;;;9.40;8.23;;;9.50;74.40;;;8.22;77.41;96456.56;5053904;28;20458;-75
2021/11/03 09:42:45;;;;;;;11.30;10.20;;;9.60;73.70;;;8.27;77.11;96456.66;5047920;28;20485;-75
2021/11/03 09:45:20;;;;;;;9.30;8.30;;;9.60;73.50;;;8.23;77.76;96455.50;5051457;28;20787;-75
2021/11/03 09:48:05;;;;;;;7.90;7.17;;;9.50;73.30;;;8.58;77.07;96430.34;5049195;28;20650;-75
2021/11/03 09:50:39;;;;;;;12.37;7.00;;;9.80;73.30;;;8.43;76.60;96427.34;5050798;28;20561;-71
2021/11/03 09:53:31;;;;;;;7.47;6.77;;;9.80;72.50;;;8.28;76.69;96435.97;5047998;28;20544;-73
2021/11/03 09:55:59;;;;;;;12.03;8.10;;;9.60;72.10;;;8.52;77.21;96446.66;5045395;28;20553;-74
2021/11/03 09:58:44;;;;;;;12.73;8.10;;;9.80;73.10;;;8.76;76.80;96453.56;5062166;28;20457;-72
2021/11/03 10:01:22;;;;;;;18.40;8.80;;;10.00;72.10;;;8.70;75.78;96442.94;5058935;28;20469;-73
2021/11/03 10:04:14;;;;;;;11.17;7.70;;;10.00;71.20;;;8.63;75.58;96435.03;5051162;28;20450;-71
2021/11/03 10:06:54;;;;;;;11.33;10.13;;;9.90;72.40;;;8.59;77.13;96433.88;5047575;28;20477;-73
2021/11/03 10:09:21;;;;;;;8.10;7.30;;;9.90;72.40;;;8.75;76.64;96437.63;5050222;28;20493;-73
2021/11/03 10:11:53;;;;;;;10.70;8.27;;;10.00;71.50;;;8.57;76.83;96427.88;5049480;28;20527;-73
2021/11/03 10:14:21;;;;;;;8.17;7.30;;;9.90;72.50;;;8.63;76.66;96426.94;5046340;28;20544;-73
2021/11/03 10:16:52;;;;;;;8.20;7.40;;;9.90;72.50;;;8.49;77.33;96418.28;5051642;28;20461;-72
2021/11/03 10:19:33;;;;;;;8.93;8.20;;;9.80;72.90;;;8.60;78.05;96419.34;5049220;28;21097;-72
2021/11/03 10:22:26;;;;;;;9.23;8.33;;;9.90;73.80;;;8.92;76.48;96387.28;5046556;28;22202;-73
2021/11/03 10:25:19;;;;;;;8.60;7.67;;;10.00;72.00;;;9.20;75.68;96398.25;5051526;28;20458;-72
2021/11/03 10:27:51;;;;;;;8.83;8.00;;;10.30;71.60;;;9.27;75.39;96393.50;5048082;28;20446;-75
2021/11/03 10:30:34;;;;;;;8.80;7.90;;;10.50;71.70;;;9.46;74.18;96372.47;5045233;28;20962;-72
2021/11/03 10:33:18;;;;;;;8.23;7.47;;;10.70;71.00;;;9.90;73.60;96358.19;5047880;28;20493;-72
2021/11/03 10:35:59;;;;;;;8.27;7.47;;;11.00;71.10;;;10.15;71.64;96367.66;5044315;28;20473;-71